sensor_id;sensor_type;location;lat;lon;timestamp;P1;durP1;ratioP1;P2;durP2;ratioP2
23730;SDS011;12046;44.702;10.622;2023-04-24T00:00:03;4.88;;;1.95;;
23730;SDS011;12046;44.702;10.622;2023-04-24T00:02:34;3.55;;;1.77;;
23730;SDS011;12046;44.702;10.622;2023-04-24T00:05:03;1.95;;;1.75;;
23730;SDS011;12046;44.702;10.622;2023-04-24T00:07:32;2.63;;;2.10;;
23730;SDS011;12046;44.702;10.622;2023-04-24T00:09:59;3.53;;;2.38;;
23730;SDS011;12046;44.702;10.622;2023-04-24T00:12:25;3.15;;;2.17;;
23730;SDS011;12046;44.702;10.622;2023-04-24T00:14:52;3.67;;;2.40;;
23730;SDS011;12046;44.702;10.622;2023-04-24T00:17:18;3.20;;;2.53;;
23730;SDS011;12046;44.702;10.622;2023-04-24T00:19:46;2.70;;;2.50;;
23730;SDS011;12046;44.702;10.622;2023-04-24T00:22:12;5.13;;;2.80;;
23730;SDS011;12046;44.702;10.622;2023-04-24T00:24:40;5.88;;;2.90;;
23730;SDS011;12046;44.702;10.622;2023-04-24T00:27:06;4.05;;;3.05;;
23730;SDS011;12046;44.702;10.622;2023-04-24T00:29:32;7.72;;;3.03;;
23730;SDS011;12046;44.702;10.622;2023-04-24T00:31:57;5.07;;;2.92;;
23730;SDS011;12046;44.702;10.622;2023-04-24T00:34:23;3.50;;;3.20;;
23730;SDS011;12046;44.702;10.622;2023-04-24T00:36:49;4.03;;;2.75;;
23730;SDS011;12046;44.702;10.622;2023-04-24T00:39:20;5.60;;;3.30;;
23730;SDS011;12046;44.702;10.622;2023-04-24T00:41:47;5.10;;;3.70;;
23730;SDS011;12046;44.702;10.622;2023-04-24T00:44:14;5.90;;;4.00;;
23730;SDS011;12046;44.702;10.622;2023-04-24T00:46:40;3.70;;;3.40;;
23730;SDS011;12046;44.702;10.622;2023-04-24T00:49:07;5.32;;;3.70;;
23730;SDS011;12046;44.702;10.622;2023-04-24T00:51:33;5.15;;;3.90;;
23730;SDS011;12046;44.702;10.622;2023-04-24T00:53:59;4.82;;;4.07;;
23730;SDS011;12046;44.702;10.622;2023-04-24T00:56:26;7.88;;;4.40;;
23730;SDS011;12046;44.702;10.622;2023-04-24T00:58:52;7.95;;;3.97;;
23730;SDS011;12046;44.702;10.622;2023-04-24T01:01:19;5.60;;;4.10;;
23730;SDS011;12046;44.702;10.622;2023-04-24T01:03:46;6.38;;;4.60;;
23730;SDS011;12046;44.702;10.622;2023-04-24T01:06:12;8.32;;;4.30;;
23730;SDS011;12046;44.702;10.622;2023-04-24T01:08:39;4.90;;;4.30;;
23730;SDS011;12046;44.702;10.622;2023-04-24T01:11:06;7.28;;;4.55;;
23730;SDS011;12046;44.702;10.622;2023-04-24T01:13:32;4.97;;;4.43;;
23730;SDS011;12046;44.702;10.622;2023-04-24T01:15:59;6.03;;;4.65;;
23730;SDS011;12046;44.702;10.622;2023-04-24T01:18:26;5.70;;;4.68;;
23730;SDS011;12046;44.702;10.622;2023-04-24T01:20:53;5.78;;;5.00;;
23730;SDS011;12046;44.702;10.622;2023-04-24T01:23:22;6.55;;;5.22;;
23730;SDS011;12046;44.702;10.622;2023-04-24T01:25:48;7.47;;;5.85;;
23730;SDS011;12046;44.702;10.622;2023-04-24T01:28:15;7.15;;;5.53;;
23730;SDS011;12046;44.702;10.622;2023-04-24T01:30:41;6.63;;;5.80;;
23730;SDS011;12046;44.702;10.622;2023-04-24T01:33:07;6.60;;;6.00;;
23730;SDS011;12046;44.702;10.622;2023-04-24T01:35:33;6.65;;;6.00;;
23730;SDS011;12046;44.702;10.622;2023-04-24T01:38:01;12.88;;;6.50;;
23730;SDS011;12046;44.702;10.622;2023-04-24T01:40:27;8.20;;;6.30;;
23730;SDS011;12046;44.702;10.622;2023-04-24T01:42:53;8.38;;;7.57;;
23730;SDS011;12046;44.702;10.622;2023-04-24T01:45:19;10.68;;;7.50;;
23730;SDS011;12046;44.702;10.622;2023-04-24T01:47:45;11.50;;;7.60;;
23730;SDS011;12046;44.702;10.622;2023-04-24T01:50:11;9.45;;;8.07;;
23730;SDS011;12046;44.702;10.622;2023-04-24T01:52:37;9.88;;;8.88;;
23730;SDS011;12046;44.702;10.622;2023-04-24T01:55:03;10.23;;;8.73;;
23730;SDS011;12046;44.702;10.622;2023-04-24T01:57:30;9.90;;;8.40;;
23730;SDS011;12046;44.702;10.622;2023-04-24T01:59:56;9.88;;;8.10;;
23730;SDS011;12046;44.702;10.622;2023-04-24T02:02:22;10.68;;;9.60;;
23730;SDS011;12046;44.702;10.622;2023-04-24T02:04:55;10.50;;;9.05;;
23730;SDS011;12046;44.702;10.622;2023-04-24T02:07:21;11.90;;;9.55;;
23730;SDS011;12046;44.702;10.622;2023-04-24T02:09:47;9.90;;;9.00;;
23730;SDS011;12046;44.702;10.622;2023-04-24T02:12:13;11.80;;;10.60;;
23730;SDS011;12046;44.702;10.622;2023-04-24T02:14:39;10.88;;;9.93;;
23730;SDS011;12046;44.702;10.622;2023-04-24T02:17:05;11.85;;;10.65;;
23730;SDS011;12046;44.702;10.622;2023-04-24T02:19:31;13.43;;;11.80;;
23730;SDS011;12046;44.702;10.622;2023-04-24T02:21:57;12.57;;;11.32;;
23730;SDS011;12046;44.702;10.622;2023-04-24T02:24:23;12.93;;;11.73;;
23730;SDS011;12046;44.702;10.622;2023-04-24T02:26:48;12.00;;;10.80;;
23730;SDS011;12046;44.702;10.622;2023-04-24T02:29:14;14.40;;;12.88;;
23730;SDS011;12046;44.702;10.622;2023-04-24T02:31:40;12.63;;;11.32;;
23730;SDS011;12046;44.702;10.622;2023-04-24T02:34:06;13.30;;;11.68;;
23730;SDS011;12046;44.702;10.622;2023-04-24T02:36:31;11.45;;;10.35;;
23730;SDS011;12046;44.702;10.622;2023-04-24T02:38:57;11.57;;;10.52;;
23730;SDS011;12046;44.702;10.622;2023-04-24T02:41:23;12.25;;;11.15;;
23730;SDS011;12046;44.702;10.622;2023-04-24T02:43:49;12.30;;;11.10;;
23730;SDS011;12046;44.702;10.622;2023-04-24T02:46:14;11.98;;;10.43;;
23730;SDS011;12046;44.702;10.622;2023-04-24T02:48:40;12.98;;;11.63;;
23730;SDS011;12046;44.702;10.622;2023-04-24T02:51:06;12.43;;;11.20;;
23730;SDS011;12046;44.702;10.622;2023-04-24T02:53:32;13.55;;;12.25;;
23730;SDS011;12046;44.702;10.622;2023-04-24T02:55:57;14.60;;;11.77;;
23730;SDS011;12046;44.702;10.622;2023-04-24T02:58:23;13.30;;;11.90;;
23730;SDS011;12046;44.702;10.622;2023-04-24T03:00:52;13.25;;;11.95;;
23730;SDS011;12046;44.702;10.622;2023-04-24T03:03:20;13.88;;;12.27;;
23730;SDS011;12046;44.702;10.622;2023-04-24T03:05:46;18.02;;;13.27;;
23730;SDS011;12046;44.702;10.622;2023-04-24T03:08:12;14.43;;;13.10;;
23730;SDS011;12046;44.702;10.622;2023-04-24T03:10:39;14.07;;;12.38;;
23730;SDS011;12046;44.702;10.622;2023-04-24T03:13:05;13.60;;;11.90;;
23730;SDS011;12046;44.702;10.622;2023-04-24T03:15:31;14.07;;;12.65;;
23730;SDS011;12046;44.702;10.622;2023-04-24T03:17:56;14.07;;;12.68;;
23730;SDS011;12046;44.702;10.622;2023-04-24T03:20:22;12.82;;;11.63;;
23730;SDS011;12046;44.702;10.622;2023-04-24T03:22:48;13.65;;;12.45;;
23730;SDS011;12046;44.702;10.622;2023-04-24T03:25:14;13.32;;;11.85;;
23730;SDS011;12046;44.702;10.622;2023-04-24T03:27:40;14.55;;;12.10;;
23730;SDS011;12046;44.702;10.622;2023-04-24T03:30:06;13.38;;;11.98;;
23730;SDS011;12046;44.702;10.622;2023-04-24T03:32:33;13.48;;;11.35;;
23730;SDS011;12046;44.702;10.622;2023-04-24T03:34:58;11.60;;;10.48;;
23730;SDS011;12046;44.702;10.622;2023-04-24T03:37:24;12.77;;;11.60;;
23730;SDS011;12046;44.702;10.622;2023-04-24T03:39:51;12.52;;;11.23;;
23730;SDS011;12046;44.702;10.622;2023-04-24T03:42:17;11.98;;;10.77;;
23730;SDS011;12046;44.702;10.622;2023-04-24T03:44:43;12.50;;;11.30;;
23730;SDS011;12046;44.702;10.622;2023-04-24T03:47:08;13.80;;;12.50;;
23730;SDS011;12046;44.702;10.622;2023-04-24T03:49:35;13.88;;;12.48;;
23730;SDS011;12046;44.702;10.622;2023-04-24T03:52:00;14.02;;;11.85;;
23730;SDS011;12046;44.702;10.622;2023-04-24T03:54:26;13.25;;;12.07;;
23730;SDS011;12046;44.702;10.622;2023-04-24T03:56:52;12.38;;;11.10;;
23730;SDS011;12046;44.702;10.622;2023-04-24T03:59:18;12.50;;;11.40;;
23730;SDS011;12046;44.702;10.622;2023-04-24T04:01:44;13.55;;;12.15;;
23730;SDS011;12046;44.702;10.622;2023-04-24T04:04:10;12.15;;;10.93;;
23730;SDS011;12046;44.702;10.622;2023-04-24T04:06:36;13.18;;;11.48;;
23730;SDS011;12046;44.702;10.622;2023-04-24T04:09:02;12.48;;;11.27;;
23730;SDS011;12046;44.702;10.622;2023-04-24T04:11:28;11.88;;;10.55;;
23730;SDS011;12046;44.702;10.622;2023-04-24T04:13:55;13.50;;;10.48;;
23730;SDS011;12046;44.702;10.622;2023-04-24T04:16:21;11.20;;;10.07;;
23730;SDS011;12046;44.702;10.622;2023-04-24T04:18:47;11.00;;;9.88;;
23730;SDS011;12046;44.702;10.622;2023-04-24T04:21:13;11.00;;;9.85;;
23730;SDS011;12046;44.702;10.622;2023-04-24T04:23:39;10.77;;;9.77;;
23730;SDS011;12046;44.702;10.622;2023-04-24T04:26:05;11.23;;;10.05;;
23730;SDS011;12046;44.702;10.622;2023-04-24T04:28:31;10.00;;;9.02;;
23730;SDS011;12046;44.702;10.622;2023-04-24T04:30:57;12.23;;;10.38;;
23730;SDS011;12046;44.702;10.622;2023-04-24T04:33:23;10.95;;;9.85;;
23730;SDS011;12046;44.702;10.622;2023-04-24T04:35:49;11.13;;;9.98;;
23730;SDS011;12046;44.702;10.622;2023-04-24T04:38:21;11.73;;;9.25;;
23730;SDS011;12046;44.702;10.622;2023-04-24T04:40:47;10.55;;;9.38;;
23730;SDS011;12046;44.702;10.622;2023-04-24T04:43:14;11.45;;;10.35;;
23730;SDS011;12046;44.702;10.622;2023-04-24T04:45:42;11.05;;;9.95;;
23730;SDS011;12046;44.702;10.622;2023-04-24T04:48:08;11.18;;;10.07;;
23730;SDS011;12046;44.702;10.622;2023-04-24T04:50:37;12.07;;;10.85;;
23730;SDS011;12046;44.702;10.622;2023-04-24T04:53:03;12.00;;;10.82;;
23730;SDS011;12046;44.702;10.622;2023-04-24T04:55:29;14.52;;;11.13;;
23730;SDS011;12046;44.702;10.622;2023-04-24T04:57:55;12.23;;;10.98;;
23730;SDS011;12046;44.702;10.622;2023-04-24T05:00:21;11.70;;;10.60;;
23730;SDS011;12046;44.702;10.622;2023-04-24T05:02:50;12.38;;;10.20;;
23730;SDS011;12046;44.702;10.622;2023-04-24T05:05:16;11.20;;;10.10;;
23730;SDS011;12046;44.702;10.622;2023-04-24T05:07:42;11.85;;;10.68;;
23730;SDS011;12046;44.702;10.622;2023-04-24T05:10:09;15.65;;;10.32;;
23730;SDS011;12046;44.702;10.622;2023-04-24T05:12:35;11.90;;;10.63;;
23730;SDS011;12046;44.702;10.622;2023-04-24T05:15:01;12.48;;;10.82;;
23730;SDS011;12046;44.702;10.622;2023-04-24T05:17:28;10.90;;;9.80;;
23730;SDS011;12046;44.702;10.622;2023-04-24T05:19:53;11.07;;;9.93;;
23730;SDS011;12046;44.702;10.622;2023-04-24T05:22:19;11.52;;;10.32;;
23730;SDS011;12046;44.702;10.622;2023-04-24T05:24:46;12.73;;;10.05;;
23730;SDS011;12046;44.702;10.622;2023-04-24T05:27:12;11.13;;;9.93;;
23730;SDS011;12046;44.702;10.622;2023-04-24T05:29:38;12.25;;;10.05;;
23730;SDS011;12046;44.702;10.622;2023-04-24T05:32:03;11.13;;;10.02;;
23730;SDS011;12046;44.702;10.622;2023-04-24T05:34:29;10.77;;;9.77;;
23730;SDS011;12046;44.702;10.622;2023-04-24T05:36:55;10.77;;;9.70;;
23730;SDS011;12046;44.702;10.622;2023-04-24T05:39:21;11.13;;;10.00;;
23730;SDS011;12046;44.702;10.622;2023-04-24T05:41:47;13.00;;;10.88;;
23730;SDS011;12046;44.702;10.622;2023-04-24T05:44:12;11.20;;;9.93;;
23730;SDS011;12046;44.702;10.622;2023-04-24T05:46:38;11.30;;;10.20;;
23730;SDS011;12046;44.702;10.622;2023-04-24T05:49:04;12.68;;;10.68;;
23730;SDS011;12046;44.702;10.622;2023-04-24T05:51:30;12.52;;;10.40;;
23730;SDS011;12046;44.702;10.622;2023-04-24T05:53:56;11.77;;;10.45;;
23730;SDS011;12046;44.702;10.622;2023-04-24T05:56:22;13.30;;;9.88;;
23730;SDS011;12046;44.702;10.622;2023-04-24T05:58:48;11.90;;;10.80;;
23730;SDS011;12046;44.702;10.622;2023-04-24T06:01:14;10.30;;;8.88;;
23730;SDS011;12046;44.702;10.622;2023-04-24T06:03:40;10.68;;;9.57;;
23730;SDS011;12046;44.702;10.622;2023-04-24T06:06:07;10.38;;;9.27;;
23730;SDS011;12046;44.702;10.622;2023-04-24T06:08:33;10.02;;;8.98;;
23730;SDS011;12046;44.702;10.622;2023-04-24T06:10:59;10.73;;;9.20;;
23730;SDS011;12046;44.702;10.622;2023-04-24T06:13:25;9.60;;;7.60;;
23730;SDS011;12046;44.702;10.622;2023-04-24T06:15:52;8.35;;;7.53;;
23730;SDS011;12046;44.702;10.622;2023-04-24T06:18:18;9.38;;;7.25;;
23730;SDS011;12046;44.702;10.622;2023-04-24T06:20:45;7.70;;;7.00;;
23730;SDS011;12046;44.702;10.622;2023-04-24T06:23:10;8.23;;;6.78;;
23730;SDS011;12046;44.702;10.622;2023-04-24T06:25:36;8.00;;;7.20;;
23730;SDS011;12046;44.702;10.622;2023-04-24T06:28:03;9.75;;;7.15;;
23730;SDS011;12046;44.702;10.622;2023-04-24T06:30:29;7.20;;;6.60;;
23730;SDS011;12046;44.702;10.622;2023-04-24T06:32:54;8.10;;;6.70;;
23730;SDS011;12046;44.702;10.622;2023-04-24T06:35:20;10.40;;;6.95;;
23730;SDS011;12046;44.702;10.622;2023-04-24T06:37:46;14.15;;;6.80;;
23730;SDS011;12046;44.702;10.622;2023-04-24T06:40:12;6.65;;;5.95;;
23730;SDS011;12046;44.702;10.622;2023-04-24T06:42:37;7.60;;;6.32;;
23730;SDS011;12046;44.702;10.622;2023-04-24T06:45:03;9.50;;;6.82;;
23730;SDS011;12046;44.702;10.622;2023-04-24T06:47:30;9.40;;;7.03;;
23730;SDS011;12046;44.702;10.622;2023-04-24T06:49:56;7.40;;;6.68;;
23730;SDS011;12046;44.702;10.622;2023-04-24T06:52:22;10.18;;;6.53;;
23730;SDS011;12046;44.702;10.622;2023-04-24T06:54:48;7.00;;;6.30;;
23730;SDS011;12046;44.702;10.622;2023-04-24T06:57:13;7.53;;;6.53;;
23730;SDS011;12046;44.702;10.622;2023-04-24T06:59:41;7.00;;;6.28;;
23730;SDS011;12046;44.702;10.622;2023-04-24T07:02:07;8.15;;;7.05;;
23730;SDS011;12046;44.702;10.622;2023-04-24T07:04:32;7.72;;;6.75;;
23730;SDS011;12046;44.702;10.622;2023-04-24T07:06:58;10.70;;;6.75;;
23730;SDS011;12046;44.702;10.622;2023-04-24T07:09:25;7.95;;;6.82;;
23730;SDS011;12046;44.702;10.622;2023-04-24T07:11:51;10.23;;;6.55;;
23730;SDS011;12046;44.702;10.622;2023-04-24T07:14:17;7.93;;;6.57;;
23730;SDS011;12046;44.702;10.622;2023-04-24T07:16:43;8.68;;;6.97;;
23730;SDS011;12046;44.702;10.622;2023-04-24T07:19:10;8.52;;;6.40;;
23730;SDS011;12046;44.702;10.622;2023-04-24T07:21:36;6.95;;;6.32;;
23730;SDS011;12046;44.702;10.622;2023-04-24T07:24:02;6.70;;;6.00;;
23730;SDS011;12046;44.702;10.622;2023-04-24T07:26:30;9.02;;;6.05;;
23730;SDS011;12046;44.702;10.622;2023-04-24T07:28:56;6.15;;;5.55;;
23730;SDS011;12046;44.702;10.622;2023-04-24T07:31:22;7.38;;;5.78;;
23730;SDS011;12046;44.702;10.622;2023-04-24T07:33:48;7.22;;;5.05;;
23730;SDS011;12046;44.702;10.622;2023-04-24T07:36:14;6.40;;;4.10;;
23730;SDS011;12046;44.702;10.622;2023-04-24T07:38:44;3.92;;;3.55;;
23730;SDS011;12046;44.702;10.622;2023-04-24T07:41:10;5.25;;;3.25;;
23730;SDS011;12046;44.702;10.622;2023-04-24T07:43:36;4.07;;;3.67;;
23730;SDS011;12046;44.702;10.622;2023-04-24T07:46:02;5.68;;;3.45;;
23730;SDS011;12046;44.702;10.622;2023-04-24T07:48:28;4.20;;;3.67;;
23730;SDS011;12046;44.702;10.622;2023-04-24T07:50:53;4.70;;;4.25;;
23730;SDS011;12046;44.702;10.622;2023-04-24T07:53:20;7.63;;;4.50;;
23730;SDS011;12046;44.702;10.622;2023-04-24T07:55:45;5.65;;;4.88;;
23730;SDS011;12046;44.702;10.622;2023-04-24T07:58:11;6.40;;;4.68;;
23730;SDS011;12046;44.702;10.622;2023-04-24T08:00:37;7.07;;;4.38;;
23730;SDS011;12046;44.702;10.622;2023-04-24T08:03:03;5.95;;;5.20;;
23730;SDS011;12046;44.702;10.622;2023-04-24T08:05:29;5.35;;;4.80;;
23730;SDS011;12046;44.702;10.622;2023-04-24T08:07:55;5.97;;;5.05;;
23730;SDS011;12046;44.702;10.622;2023-04-24T08:10:22;4.80;;;4.30;;
23730;SDS011;12046;44.702;10.622;2023-04-24T08:12:48;4.95;;;4.55;;
23730;SDS011;12046;44.702;10.622;2023-04-24T08:15:14;5.07;;;4.57;;
23730;SDS011;12046;44.702;10.622;2023-04-24T08:17:40;7.00;;;4.60;;
23730;SDS011;12046;44.702;10.622;2023-04-24T08:20:06;5.25;;;4.75;;
23730;SDS011;12046;44.702;10.622;2023-04-24T08:22:38;5.95;;;4.80;;
23730;SDS011;12046;44.702;10.622;2023-04-24T08:25:05;4.82;;;4.38;;
23730;SDS011;12046;44.702;10.622;2023-04-24T08:27:31;5.43;;;4.30;;
23730;SDS011;12046;44.702;10.622;2023-04-24T08:30:02;7.20;;;4.60;;
23730;SDS011;12046;44.702;10.622;2023-04-24T08:32:28;8.15;;;5.03;;
23730;SDS011;12046;44.702;10.622;2023-04-24T08:34:55;4.70;;;4.30;;
23730;SDS011;12046;44.702;10.622;2023-04-24T08:37:25;5.05;;;4.47;;
23730;SDS011;12046;44.702;10.622;2023-04-24T08:39:54;7.80;;;4.80;;
23730;SDS011;12046;44.702;10.622;2023-04-24T08:42:20;7.35;;;4.47;;
23730;SDS011;12046;44.702;10.622;2023-04-24T08:44:46;6.13;;;4.65;;
23730;SDS011;12046;44.702;10.622;2023-04-24T08:47:17;4.88;;;4.40;;
23730;SDS011;12046;44.702;10.622;2023-04-24T08:49:45;5.35;;;4.75;;
23730;SDS011;12046;44.702;10.622;2023-04-24T08:52:15;6.72;;;5.00;;
23730;SDS011;12046;44.702;10.622;2023-04-24T08:54:41;8.63;;;5.80;;
23730;SDS011;12046;44.702;10.622;2023-04-24T08:57:08;5.80;;;5.13;;
23730;SDS011;12046;44.702;10.622;2023-04-24T08:59:36;6.78;;;5.03;;
23730;SDS011;12046;44.702;10.622;2023-04-24T09:02:03;6.10;;;5.07;;
23730;SDS011;12046;44.702;10.622;2023-04-24T09:04:30;6.45;;;4.50;;
23730;SDS011;12046;44.702;10.622;2023-04-24T09:06:58;6.43;;;4.82;;
23730;SDS011;12046;44.702;10.622;2023-04-24T09:09:25;5.47;;;4.55;;
23730;SDS011;12046;44.702;10.622;2023-04-24T09:11:51;5.78;;;4.85;;
23730;SDS011;12046;44.702;10.622;2023-04-24T09:14:19;4.90;;;4.43;;
23730;SDS011;12046;44.702;10.622;2023-04-24T09:16:46;5.13;;;4.63;;
23730;SDS011;12046;44.702;10.622;2023-04-24T09:19:12;5.57;;;4.85;;
23730;SDS011;12046;44.702;10.622;2023-04-24T09:21:38;5.03;;;4.53;;
23730;SDS011;12046;44.702;10.622;2023-04-24T09:24:08;5.07;;;4.10;;
23730;SDS011;12046;44.702;10.622;2023-04-24T09:26:43;4.18;;;3.65;;
23730;SDS011;12046;44.702;10.622;2023-04-24T09:29:13;5.95;;;4.03;;
23730;SDS011;12046;44.702;10.622;2023-04-24T09:31:40;6.10;;;3.95;;
23730;SDS011;12046;44.702;10.622;2023-04-24T09:34:06;6.55;;;4.47;;
23730;SDS011;12046;44.702;10.622;2023-04-24T09:36:36;3.95;;;3.55;;
23730;SDS011;12046;44.702;10.622;2023-04-24T09:39:06;6.88;;;3.53;;
23730;SDS011;12046;44.702;10.622;2023-04-24T09:41:36;4.82;;;3.05;;
23730;SDS011;12046;44.702;10.622;2023-04-24T09:44:14;7.85;;;3.38;;
23730;SDS011;12046;44.702;10.622;2023-04-24T09:46:40;3.53;;;3.20;;
23730;SDS011;12046;44.702;10.622;2023-04-24T09:49:11;4.72;;;3.45;;
23730;SDS011;12046;44.702;10.622;2023-04-24T09:51:40;4.68;;;3.63;;
23730;SDS011;12046;44.702;10.622;2023-04-24T09:54:16;5.65;;;3.20;;
23730;SDS011;12046;44.702;10.622;2023-04-24T09:56:46;5.93;;;4.28;;
23730;SDS011;12046;44.702;10.622;2023-04-24T09:59:18;6.10;;;4.55;;
23730;SDS011;12046;44.702;10.622;2023-04-24T10:01:44;6.07;;;4.35;;
23730;SDS011;12046;44.702;10.622;2023-04-24T10:04:32;4.82;;;3.53;;
23730;SDS011;12046;44.702;10.622;2023-04-24T10:06:57;5.78;;;4.60;;
23730;SDS011;12046;44.702;10.622;2023-04-24T10:09:24;5.13;;;3.80;;
23730;SDS011;12046;44.702;10.622;2023-04-24T10:11:52;6.32;;;4.03;;
23730;SDS011;12046;44.702;10.622;2023-04-24T10:14:20;5.18;;;4.68;;
23730;SDS011;12046;44.702;10.622;2023-04-24T10:16:48;5.38;;;4.88;;
23730;SDS011;12046;44.702;10.622;2023-04-24T10:19:15;8.27;;;4.85;;
23730;SDS011;12046;44.702;10.622;2023-04-24T10:21:43;5.40;;;4.75;;
23730;SDS011;12046;44.702;10.622;2023-04-24T10:24:13;5.13;;;4.63;;
23730;SDS011;12046;44.702;10.622;2023-04-24T10:26:40;5.35;;;3.63;;
23730;SDS011;12046;44.702;10.622;2023-04-24T10:29:07;6.75;;;4.35;;
23730;SDS011;12046;44.702;10.622;2023-04-24T10:31:35;5.72;;;4.10;;
23730;SDS011;12046;44.702;10.622;2023-04-24T10:34:02;6.57;;;4.95;;
23730;SDS011;12046;44.702;10.622;2023-04-24T10:36:33;6.65;;;4.13;;
23730;SDS011;12046;44.702;10.622;2023-04-24T10:39:00;7.47;;;4.60;;
23730;SDS011;12046;44.702;10.622;2023-04-24T10:41:30;6.97;;;3.83;;
23730;SDS011;12046;44.702;10.622;2023-04-24T10:44:12;7.13;;;4.57;;
23730;SDS011;12046;44.702;10.622;2023-04-24T10:46:42;5.30;;;4.37;;
23730;SDS011;12046;44.702;10.622;2023-04-24T10:49:09;5.13;;;4.40;;
23730;SDS011;12046;44.702;10.622;2023-04-24T10:54:28;4.63;;;3.83;;
23730;SDS011;12046;44.702;10.622;2023-04-24T11:00:29;6.38;;;3.63;;
23730;SDS011;12046;44.702;10.622;2023-04-24T11:02:39;3.63;;;3.03;;
23730;SDS011;12046;44.702;10.622;2023-04-24T11:05:14;3.47;;;2.92;;
23730;SDS011;12046;44.702;10.622;2023-04-24T11:08:09;3.70;;;2.70;;
23730;SDS011;12046;44.702;10.622;2023-04-24T11:11:01;5.80;;;3.15;;
23730;SDS011;12046;44.702;10.622;2023-04-24T11:14:00;4.53;;;3.47;;
23730;SDS011;12046;44.702;10.622;2023-04-24T11:21:43;5.32;;;3.10;;
23730;SDS011;12046;44.702;10.622;2023-04-24T11:26:55;13.38;;;4.90;;
23730;SDS011;12046;44.702;10.622;2023-04-24T11:29:46;9.75;;;4.05;;
23730;SDS011;12046;44.702;10.622;2023-04-24T11:32:14;5.47;;;3.60;;
23730;SDS011;12046;44.702;10.622;2023-04-24T11:34:54;4.80;;;3.58;;
23730;SDS011;12046;44.702;10.622;2023-04-24T11:37:35;4.25;;;3.90;;
23730;SDS011;12046;44.702;10.622;2023-04-24T11:40:02;6.57;;;3.80;;
23730;SDS011;12046;44.702;10.622;2023-04-24T11:42:36;3.40;;;3.08;;
23730;SDS011;12046;44.702;10.622;2023-04-24T11:45:06;4.65;;;2.83;;
23730;SDS011;12046;44.702;10.622;2023-04-24T11:47:33;5.80;;;3.45;;
23730;SDS011;12046;44.702;10.622;2023-04-24T11:49:59;2.83;;;2.63;;
23730;SDS011;12046;44.702;10.622;2023-04-24T11:52:29;3.10;;;2.72;;
23730;SDS011;12046;44.702;10.622;2023-04-24T11:54:55;3.92;;;3.50;;
23730;SDS011;12046;44.702;10.622;2023-04-24T11:57:22;3.65;;;3.35;;
23730;SDS011;12046;44.702;10.622;2023-04-24T11:59:52;5.20;;;2.72;;
23730;SDS011;12046;44.702;10.622;2023-04-24T12:04:48;4.45;;;2.67;;
23730;SDS011;12046;44.702;10.622;2023-04-24T12:07:14;3.22;;;2.90;;
23730;SDS011;12046;44.702;10.622;2023-04-24T12:09:43;2.30;;;1.88;;
23730;SDS011;12046;44.702;10.622;2023-04-24T12:12:09;4.70;;;2.58;;
23730;SDS011;12046;44.702;10.622;2023-04-24T12:14:42;4.75;;;2.00;;
23730;SDS011;12046;44.702;10.622;2023-04-24T12:17:29;2.50;;;2.30;;
23730;SDS011;12046;44.702;10.622;2023-04-24T12:19:57;5.05;;;2.83;;
23730;SDS011;12046;44.702;10.622;2023-04-24T12:22:24;2.75;;;2.25;;
23730;SDS011;12046;44.702;10.622;2023-04-24T12:24:57;4.32;;;2.60;;
23730;SDS011;12046;44.702;10.622;2023-04-24T12:27:23;3.67;;;2.28;;
23730;SDS011;12046;44.702;10.622;2023-04-24T12:29:56;3.25;;;2.50;;
23730;SDS011;12046;44.702;10.622;2023-04-24T12:32:23;4.43;;;1.98;;
23730;SDS011;12046;44.702;10.622;2023-04-24T12:34:50;2.25;;;2.08;;
23730;SDS011;12046;44.702;10.622;2023-04-24T12:37:17;2.40;;;2.20;;
23730;SDS011;12046;44.702;10.622;2023-04-24T12:42:30;2.80;;;2.53;;
23730;SDS011;12046;44.702;10.622;2023-04-24T12:44:56;2.30;;;2.17;;
23730;SDS011;12046;44.702;10.622;2023-04-24T12:47:30;2.85;;;2.13;;
23730;SDS011;12046;44.702;10.622;2023-04-24T12:50:00;2.83;;;2.42;;
23730;SDS011;12046;44.702;10.622;2023-04-24T12:52:27;3.13;;;2.72;;
23730;SDS011;12046;44.702;10.622;2023-04-24T12:54:54;2.55;;;1.85;;
23730;SDS011;12046;44.702;10.622;2023-04-24T12:57:24;3.05;;;2.70;;
23730;SDS011;12046;44.702;10.622;2023-04-24T12:59:53;2.70;;;2.50;;
23730;SDS011;12046;44.702;10.622;2023-04-24T13:02:20;2.00;;;1.90;;
23730;SDS011;12046;44.702;10.622;2023-04-24T13:04:47;3.10;;;2.33;;
23730;SDS011;12046;44.702;10.622;2023-04-24T13:07:13;4.85;;;3.10;;
23730;SDS011;12046;44.702;10.622;2023-04-24T13:09:40;2.22;;;2.13;;
23730;SDS011;12046;44.702;10.622;2023-04-24T13:12:07;3.63;;;2.53;;
23730;SDS011;12046;44.702;10.622;2023-04-24T13:14:33;2.80;;;2.22;;
23730;SDS011;12046;44.702;10.622;2023-04-24T13:16:59;2.80;;;2.60;;
23730;SDS011;12046;44.702;10.622;2023-04-24T13:19:28;3.35;;;2.20;;
23730;SDS011;12046;44.702;10.622;2023-04-24T13:21:54;2.72;;;2.40;;
23730;SDS011;12046;44.702;10.622;2023-04-24T13:24:22;2.42;;;2.22;;
23730;SDS011;12046;44.702;10.622;2023-04-24T13:26:51;2.75;;;2.42;;
23730;SDS011;12046;44.702;10.622;2023-04-24T13:29:18;2.72;;;2.50;;
23730;SDS011;12046;44.702;10.622;2023-04-24T13:31:44;4.18;;;2.83;;
23730;SDS011;12046;44.702;10.622;2023-04-24T13:34:10;3.47;;;3.00;;
23730;SDS011;12046;44.702;10.622;2023-04-24T13:36:36;3.35;;;2.63;;
23730;SDS011;12046;44.702;10.622;2023-04-24T13:39:02;4.40;;;2.70;;
23730;SDS011;12046;44.702;10.622;2023-04-24T13:41:30;3.08;;;2.60;;
23730;SDS011;12046;44.702;10.622;2023-04-24T13:43:56;2.92;;;2.63;;
23730;SDS011;12046;44.702;10.622;2023-04-24T13:46:21;3.33;;;2.40;;
23730;SDS011;12046;44.702;10.622;2023-04-24T13:48:47;3.20;;;2.58;;
23730;SDS011;12046;44.702;10.622;2023-04-24T13:51:19;3.03;;;2.60;;
23730;SDS011;12046;44.702;10.622;2023-04-24T13:53:45;2.35;;;2.00;;
23730;SDS011;12046;44.702;10.622;2023-04-24T13:56:11;2.70;;;2.50;;
23730;SDS011;12046;44.702;10.622;2023-04-24T13:58:38;2.70;;;2.25;;
23730;SDS011;12046;44.702;10.622;2023-04-24T14:01:04;2.78;;;2.58;;
23730;SDS011;12046;44.702;10.622;2023-04-24T14:03:30;2.95;;;2.60;;
23730;SDS011;12046;44.702;10.622;2023-04-24T14:06:01;4.75;;;2.50;;
23730;SDS011;12046;44.702;10.622;2023-04-24T14:08:29;7.07;;;2.72;;
23730;SDS011;12046;44.702;10.622;2023-04-24T14:10:55;4.15;;;2.80;;
23730;SDS011;12046;44.702;10.622;2023-04-24T14:13:23;6.72;;;2.50;;
23730;SDS011;12046;44.702;10.622;2023-04-24T14:15:49;3.50;;;3.13;;
23730;SDS011;12046;44.702;10.622;2023-04-24T14:18:17;3.10;;;2.85;;
23730;SDS011;12046;44.702;10.622;2023-04-24T14:20:43;4.20;;;3.80;;
23730;SDS011;12046;44.702;10.622;2023-04-24T14:23:09;4.10;;;3.70;;
23730;SDS011;12046;44.702;10.622;2023-04-24T14:25:35;4.18;;;3.55;;
23730;SDS011;12046;44.702;10.622;2023-04-24T14:28:01;4.28;;;3.85;;
23730;SDS011;12046;44.702;10.622;2023-04-24T14:30:27;3.80;;;3.33;;
23730;SDS011;12046;44.702;10.622;2023-04-24T14:32:55;6.28;;;3.60;;
23730;SDS011;12046;44.702;10.622;2023-04-24T14:35:21;3.30;;;2.88;;
23730;SDS011;12046;44.702;10.622;2023-04-24T14:37:47;2.95;;;2.63;;
23730;SDS011;12046;44.702;10.622;2023-04-24T14:40:17;3.47;;;3.08;;
23730;SDS011;12046;44.702;10.622;2023-04-24T14:42:42;5.50;;;2.65;;
23730;SDS011;12046;44.702;10.622;2023-04-24T14:45:08;3.53;;;3.22;;
23730;SDS011;12046;44.702;10.622;2023-04-24T14:47:35;3.17;;;2.88;;